KSEG/SEG METAR and TAF weather

Enter ICAO airport designator
Station Type Date Time Source
KSEG METAR 2024/04/17 17:53 UTC NOAA

KSEG 171753Z AUTO 09004KT 10SM OVC110 16/09 A2999 RMK AO2 SLP156 60000 T01610089 10167 20100 58027


Station Type Date Time Source
KSEG Decoded METAR 2024/04/17 17:53 UTC NOAA

SELINSGROVE PENN VALLEY AIRPORT , PA, United States (KSEG) 40-49N 076-52W 134M
Apr 17, 2024 - 01:53 PM EDT / 2024.04.17 1753 UTC
Wind: from the E (090 degrees) at 5 MPH (4 KT):0
Visibility: 10 mile(s):0
Sky conditions: overcast
Temperature: 61.0 F (16.1 C)
Dew Point: 48.0 F (8.9 C)
Relative Humidity: 62%
Pressure (altimeter): 29.99 in. Hg (1015 hPa)
Pressure tendency: 0.08 inches (2.7 hPa) lower than three hours ago
ob: KSEG 171753Z AUTO 09004KT 10SM OVC110 16/09 A2999 RMK AO2 SLP156 60000 T01610089 10167 20100 58027
cycle: 18

Station Type Date Time Source
KSEG TAF UTC NOAA

Error!

Example: see airport list